Time;durP1;ratioP1;P1;durP2;ratioP2;P2;SDS_P1;SDS_P2;PMS_P1;PMS_P2;Temp;Humidity;BMP_temperature;BMP_pressure;BME280_temperature;BME280_humidity;BME280_pressure;Samples;Min_cycle;Max_cycle;Signal;HPM_P1;HPM_P2
2020/12/21 00:00:10;;;;;;;6.72;5.12;;;;;;;0.06;69.37;102631.34;1783061;79;21075;-77
2020/12/21 00:02:48;;;;;;;4.62;3.83;;;;;;;0.01;69.28;102626.97;1783076;78;21382;-77
2020/12/21 00:05:16;;;;;;;4.83;3.47;;;;;;;-0.03;68.62;102630.77;1783095;79;20941;-75
2020/12/21 00:07:44;;;;;;;5.87;3.72;;;;;;;-0.08;68.29;102630.27;1783170;79;20909;-76
2020/12/21 00:10:12;;;;;;;5.83;3.62;;;;;;;-0.12;68.25;102638.79;1782940;78;21011;-76
2020/12/21 00:12:39;;;;;;;4.95;3.42;;;;;;;-0.13;68.00;102629.33;1783827;79;21032;-77
2020/12/21 00:15:07;;;;;;;6.00;3.45;;;;;;;-0.14;67.75;102636.60;1785966;79;21651;-76
2020/12/21 00:17:35;;;;;;;4.75;3.22;;;;;;;-0.13;67.25;102627.61;1785028;79;21071;-76
2020/12/21 00:20:04;;;;;;;3.90;2.50;;;;;;;-0.16;66.33;102634.41;1783002;79;21020;-77
2020/12/21 00:22:32;;;;;;;2.67;2.30;;;;;;;-0.21;65.81;102642.08;1783134;79;22124;-77
2020/12/21 00:25:00;;;;;;;2.58;2.35;;;;;;;-0.27;65.56;102641.96;1782903;79;21024;-75
2020/12/21 00:27:27;;;;;;;2.70;2.47;;;;;;;-0.33;65.10;102635.44;1782922;79;21915;-75
2020/12/21 00:29:55;;;;;;;3.60;2.80;;;;;;;-0.36;65.31;102632.78;1783115;79;20944;-76
2020/12/21 00:32:23;;;;;;;5.65;3.00;;;;;;;-0.39;65.45;102643.91;1783000;79;20933;-76
2020/12/21 00:34:51;;;;;;;3.20;2.47;;;;;;;-0.38;65.12;102639.61;1757539;79;21007;-76
2020/12/21 00:37:19;;;;;;;5.35;4.22;;;;;;;-0.42;65.34;102642.58;1782965;79;21028;-76
2020/12/21 00:39:48;;;;;;;5.25;2.83;;;;;;;-0.42;65.53;102630.55;1783130;79;21402;-76
2020/12/21 00:42:17;;;;;;;3.55;2.65;;;;;;;-0.41;65.59;102632.70;1782887;79;20946;-77
2020/12/21 00:44:45;;;;;;;4.30;3.25;;;;;;;-0.35;65.22;102630.67;1783086;79;21370;-75
2020/12/21 00:47:13;;;;;;;3.17;2.47;;;;;;;-0.38;65.12;102633.17;1783142;79;21177;-74
2020/12/21 00:49:42;;;;;;;3.02;2.45;;;;;;;-0.38;64.69;102634.45;1783078;79;20968;-75
2020/12/21 00:52:10;;;;;;;2.37;1.87;;;;;;;-0.36;64.43;102625.91;1783142;79;20976;-75
2020/12/21 00:54:38;;;;;;;3.30;2.70;;;;;;;-0.35;64.16;102631.53;1782939;79;21083;-76
2020/12/21 00:57:06;;;;;;;3.37;2.77;;;;;;;-0.35;64.06;102634.53;1783314;79;21382;-76
2020/12/21 00:59:34;;;;;;;2.45;2.25;;;;;;;-0.34;63.49;102647.86;1784096;79;20960;-72
2020/12/21 01:02:05;;;;;;;2.98;2.47;;;;;;;-0.38;63.41;102634.45;1785468;79;21047;-74
2020/12/21 01:04:33;;;;;;;2.08;1.87;;;;;;;-0.44;63.73;102628.80;1760686;78;20921;-73
2020/12/21 01:07:02;;;;;;;2.72;2.52;;;;;;;-0.51;63.54;102634.66;1785133;79;21359;-72
2020/12/21 01:09:30;;;;;;;3.50;2.37;;;;;;;-0.54;63.83;102630.74;1783915;79;21023;-76
2020/12/21 01:11:57;;;;;;;4.03;3.08;;;;;;;-0.55;63.94;102636.32;1783069;79;21043;-76
2020/12/21 01:14:25;;;;;;;3.10;2.50;;;;;;;-0.51;63.82;102633.36;1775495;79;20989;-75
2020/12/21 01:16:53;;;;;;;2.47;2.20;;;;;;;-0.52;63.92;102626.48;1775425;79;20917;-76
2020/12/21 01:19:21;;;;;;;2.55;1.98;;;;;;;-0.50;64.09;102636.41;1775411;79;21012;-75
2020/12/21 01:21:49;;;;;;;2.90;2.37;;;;;;;-0.50;63.79;102630.82;1775471;79;21454;-75
2020/12/21 01:24:18;;;;;;;2.40;2.10;;;;;;;-0.56;64.37;102637.14;1775621;79;21198;-76
2020/12/21 01:26:46;;;;;;;2.08;1.60;;;;;;;-0.55;64.39;102639.33;1775233;79;20960;-76
2020/12/21 01:29:14;;;;;;;2.30;2.10;;;;;;;-0.55;64.64;102643.19;1775462;79;20994;-76
2020/12/21 01:31:43;;;;;;;2.90;2.15;;;;;;;-0.54;64.69;102641.05;1775490;79;21498;-77
2020/12/21 01:34:13;;;;;;;2.42;1.98;;;;;;;-0.52;64.69;102645.81;1775283;79;21139;-76
2020/12/21 01:36:43;;;;;;;2.37;2.17;;;;;;;-0.50;64.68;102641.13;1776241;79;21908;-78
2020/12/21 01:39:10;;;;;;;2.50;2.27;;;;;;;-0.52;64.67;102645.81;1776157;79;20989;-78
2020/12/21 01:41:38;;;;;;;2.37;1.87;;;;;;;-0.52;64.76;102645.81;1775485;79;20961;-76
2020/12/21 01:44:06;;;;;;;2.67;2.47;;;;;;;-0.56;65.03;102646.16;1775362;79;20922;-78
2020/12/21 01:46:35;;;;;;;2.20;1.98;;;;;;;-0.56;65.21;102646.16;1775434;79;21648;-76
2020/12/21 01:49:03;;;;;;;2.27;2.02;;;;;;;-0.53;65.07;102650.53;1775206;79;21384;-76
2020/12/21 01:51:30;;;;;;;2.10;1.87;;;;;;;-0.58;65.11;102645.69;1775165;79;20977;-76
2020/12/21 01:53:59;;;;;;;1.95;1.82;;;;;;;-0.66;65.12;102646.84;1775196;79;21040;-75
2020/12/21 01:56:27;;;;;;;1.80;1.70;;;;;;;-0.69;65.28;102652.81;1775847;79;20973;-73
2020/12/21 01:58:54;;;;;;;2.08;1.75;;;;;;;-0.67;65.53;102648.95;1778218;79;20941;-75
2020/12/21 02:01:22;;;;;;;1.80;1.70;;;;;;;-0.67;65.64;102651.14;1778018;79;21184;-76
2020/12/21 02:03:50;;;;;;;1.85;1.70;;;;;;;-0.66;65.77;102650.72;1775491;79;21041;-77
2020/12/21 02:06:18;;;;;;;2.12;1.80;;;;;;;-0.66;65.70;102642.98;1775668;79;21037;-76
2020/12/21 02:08:46;;;;;;;2.08;1.82;;;;;;;-0.68;65.64;102637.80;1775298;79;20953;-77
2020/12/21 02:11:14;;;;;;;2.30;2.10;;;;;;;-0.65;65.77;102638.27;1775299;79;20941;-76
2020/12/21 02:13:43;;;;;;;2.62;2.00;;;;;;;-0.64;65.93;102638.30;1775123;79;21186;-76
2020/12/21 02:16:15;;;;;;;1.90;1.75;;;;;;;-0.59;65.83;102637.53;1775240;79;21088;-75
2020/12/21 02:18:41;;;;;;;1.55;1.45;;;;;;;-0.59;65.60;102638.81;1775399;79;20988;-76
2020/12/21 02:21:09;;;;;;;1.65;1.55;;;;;;;-0.61;65.56;102641.35;1775339;79;21020;-75
2020/12/21 02:23:40;;;;;;;3.37;1.87;;;;;;;-0.64;65.78;102637.44;1797763;79;20957;-74
2020/12/21 02:26:08;;;;;;;1.65;1.55;;;;;;;-0.66;65.81;102620.66;1775407;79;21402;-76
2020/12/21 02:28:35;;;;;;;1.85;1.75;;;;;;;-0.69;65.86;102631.31;1775150;79;20977;-75
2020/12/21 02:31:03;;;;;;;1.98;1.87;;;;;;;-0.73;66.14;102635.55;1764025;79;20944;-75
2020/12/21 02:33:32;;;;;;;2.00;1.90;;;;;;;-0.71;66.25;102640.72;1775291;79;20973;-75
2020/12/21 02:36:00;;;;;;;3.30;1.98;;;;;;;-0.75;66.33;102639.81;1775412;79;21016;-76
2020/12/21 02:38:27;;;;;;;2.47;2.27;;;;;;;-0.76;66.31;102634.62;1775056;79;21231;-75
2020/12/21 02:40:55;;;;;;;2.75;2.55;;;;;;;-0.81;66.49;102638.82;1775242;79;20953;-75
2020/12/21 02:43:23;;;;;;;2.20;2.00;;;;;;;-0.81;66.46;102637.10;1775298;79;20954;-75
2020/12/21 02:45:51;;;;;;;2.62;2.42;;;;;;;-0.84;66.68;102639.20;1775220;79;20996;-77
2020/12/21 02:48:19;;;;;;;2.62;2.42;;;;;;;-0.88;66.54;102637.83;1775365;79;21028;-75
2020/12/21 02:50:48;;;;;;;1.77;1.67;;;;;;;-0.87;66.41;102642.12;1775133;79;22393;-74
2020/12/21 02:53:16;;;;;;;2.30;2.10;;;;;;;-0.92;66.23;102642.47;1775147;79;20975;-76
2020/12/21 02:55:45;;;;;;;2.75;2.55;;;;;;;-0.97;66.14;102640.22;1775310;79;21403;-77
2020/12/21 02:58:12;;;;;;;3.22;2.65;;;;;;;-0.98;66.15;102637.18;1775169;79;20985;-75
2020/12/21 03:00:42;;;;;;;2.98;2.75;;;;;;;-0.94;66.06;102645.42;1775436;79;20968;-77
2020/12/21 03:03:12;;;;;;;3.25;2.92;;;;;;;-0.93;65.87;102639.45;1775307;79;21024;-76
2020/12/21 03:05:42;;;;;;;2.67;2.30;;;;;;;-0.93;66.01;102638.17;1775308;79;21008;-75
2020/12/21 03:08:11;;;;;;;3.00;2.70;;;;;;;-0.93;65.99;102642.89;1775376;79;21497;-75
2020/12/21 03:10:38;;;;;;;4.45;2.72;;;;;;;-0.95;65.96;102643.70;1775250;79;21052;-74
2020/12/21 03:13:07;;;;;;;2.52;2.33;;;;;;;-1.01;66.10;102644.86;1775036;79;20918;-75
2020/12/21 03:15:35;;;;;;;3.52;3.10;;;;;;;-1.06;66.32;102648.62;1775004;79;21877;-75
2020/12/21 03:18:03;;;;;;;2.50;2.15;;;;;;;-1.11;66.57;102657.55;1775466;79;20984;-75
2020/12/21 03:20:32;;;;;;;2.92;2.60;;;;;;;-1.16;66.48;102650.55;1775371;79;21016;-76
2020/12/21 03:23:00;;;;;;;2.77;2.58;;;;;;;-1.20;66.62;102656.06;1775416;79;21040;-76
2020/12/21 03:25:27;;;;;;;2.67;2.47;;;;;;;-1.22;66.68;102653.87;1775809;79;21016;-73
2020/12/21 03:27:55;;;;;;;2.30;2.10;;;;;;;-1.23;66.84;102656.41;1775411;79;21171;-77
2020/12/21 03:30:23;;;;;;;2.95;2.75;;;;;;;-1.22;66.88;102654.27;1775362;79;20957;-76
2020/12/21 03:32:53;;;;;;;2.52;2.33;;;;;;;-1.25;67.10;102653.36;1775981;79;21399;-74
2020/12/21 03:35:24;;;;;;;2.83;2.60;;;;;;;-1.25;67.10;102653.36;1776303;79;20974;-75
2020/12/21 03:37:52;;;;;;;3.17;2.70;;;;;;;-1.20;67.07;102656.06;1775602;79;21036;-75
2020/12/21 03:40:20;;;;;;;3.27;2.98;;;;;;;-1.16;67.05;102655.69;1775338;79;21102;-75
2020/12/21 03:42:48;;;;;;;3.20;2.90;;;;;;;-1.16;67.23;102652.69;1775373;79;21072;-75
2020/12/21 03:45:17;;;;;;;2.40;2.20;;;;;;;-1.15;67.17;102660.02;1775626;79;21399;-76
2020/12/21 03:47:45;;;;;;;3.20;2.90;;;;;;;-1.15;66.99;102663.45;1775324;79;20894;-76
2020/12/21 03:50:13;;;;;;;3.37;3.08;;;;;;;-1.14;66.90;102669.47;1775444;79;20945;-75
2020/12/21 03:52:42;;;;;;;3.10;2.80;;;;;;;-1.14;66.78;102665.18;1775129;79;21068;-75
2020/12/21 03:55:11;;;;;;;3.17;2.87;;;;;;;-1.15;66.77;102663.88;1775482;79;21016;-76
2020/12/21 03:57:38;;;;;;;2.62;2.30;;;;;;;-1.16;66.72;102661.70;1775539;79;21044;-76
2020/12/21 04:00:07;;;;;;;4.78;2.87;;;;;;;-1.13;66.90;102668.22;1775709;79;21514;-75
2020/12/21 04:02:40;;;;;;;;;;;;;;;-1.09;66.65;102668.75;1778284;79;21020;-75
2020/12/21 04:05:09;;;;;;;2.02;1.82;;;;;;;-1.10;66.59;102675.14;1775266;79;21972;-77
2020/12/21 04:07:37;;;;;;;3.30;2.52;;;;;;;-1.10;66.58;102675.14;1775296;79;21004;-73
2020/12/21 04:10:06;;;;;;;2.92;2.58;;;;;;;-1.15;66.78;102676.33;1775270;79;21052;-77
2020/12/21 04:12:35;;;;;;;2.85;2.65;;;;;;;-1.20;67.05;102683.09;1775219;79;20933;-75
2020/12/21 04:15:04;;;;;;;3.05;2.70;;;;;;;-1.19;67.15;102676.23;1782969;79;20957;-74
2020/12/21 04:17:32;;;;;;;2.85;2.65;;;;;;;-1.20;67.36;102681.80;1783184;79;21609;-75
2020/12/21 04:20:01;;;;;;;2.80;2.37;;;;;;;-1.15;67.33;102686.63;1783354;79;20926;-76
2020/12/21 04:22:30;;;;;;;2.52;2.12;;;;;;;-1.14;67.15;102683.63;1783016;79;20961;-76
2020/12/21 04:24:59;;;;;;;3.08;2.15;;;;;;;-1.16;67.30;102681.44;1783174;79;21005;-76
2020/12/21 04:27:27;;;;;;;2.85;2.55;;;;;;;-1.17;66.90;102687.44;1783170;79;20910;-77
2020/12/21 04:29:55;;;;;;;2.72;2.52;;;;;;;-1.20;66.93;102680.91;1783084;79;22128;-76
2020/12/21 04:32:24;;;;;;;2.72;2.52;;;;;;;-1.21;67.14;102681.76;1783195;79;20964;-76
2020/12/21 04:34:51;;;;;;;7.90;3.27;;;;;;;-1.22;67.22;102692.88;1783189;79;21028;-76
2020/12/21 04:37:19;;;;;;;2.85;2.65;;;;;;;-1.23;67.04;102686.86;1783221;79;21048;-75
2020/12/21 04:39:47;;;;;;;2.92;2.70;;;;;;;-1.30;67.15;102685.86;1784023;79;20957;-77
2020/12/21 04:42:15;;;;;;;3.35;3.05;;;;;;;-1.32;67.19;102687.52;1783162;79;21990;-77
2020/12/21 04:44:50;;;;;;;3.67;2.62;;;;;;;-1.32;67.40;102690.52;1816160;78;20943;-76
2020/12/21 04:47:20;;;;;;;3.67;2.72;;;;;;;-1.27;67.40;102688.52;1783132;79;20972;-76
2020/12/21 04:49:48;;;;;;;3.15;2.85;;;;;;;-1.26;67.39;102686.81;1782978;79;21067;-76
2020/12/21 04:52:16;;;;;;;3.33;3.10;;;;;;;-1.25;67.04;102692.39;1782951;79;20905;-76
2020/12/21 04:54:44;;;;;;;3.83;3.52;;;;;;;-1.29;67.11;102694.05;1783155;79;22583;-75
2020/12/21 04:57:12;;;;;;;4.12;3.62;;;;;;;-1.28;67.42;102696.20;1782879;79;20964;-75
2020/12/21 04:59:39;;;;;;;4.05;3.12;;;;;;;-1.27;67.28;102700.50;1783012;79;21456;-75
2020/12/21 05:02:07;;;;;;;3.10;2.40;;;;;;;-1.25;67.22;102697.12;1783070;79;21410;-77
2020/12/21 05:04:36;;;;;;;2.85;2.58;;;;;;;-1.26;67.08;102704.41;1782933;79;20937;-75
2020/12/21 05:07:04;;;;;;;3.22;2.92;;;;;;;-1.31;67.03;102701.29;1757880;79;21170;-76
2020/12/21 05:09:32;;;;;;;4.10;3.27;;;;;;;-1.32;67.13;102702.11;1782968;79;21023;-76
2020/12/21 05:12:05;;;;;;;3.58;2.80;;;;;;;-1.31;67.24;102697.00;1782716;79;21015;-75
2020/12/21 05:14:35;;;;;;;3.80;3.45;;;;;;;-1.29;67.21;102699.20;1777230;79;20953;-75
2020/12/21 05:17:14;;;;;;;3.83;3.27;;;;;;;-1.29;67.27;102696.62;1775221;79;20949;-77
2020/12/21 05:19:43;;;;;;;3.12;2.37;;;;;;;-1.24;67.21;102701.88;1775605;79;21207;-75
2020/12/21 05:22:13;;;;;;;3.80;3.08;;;;;;;-1.26;67.33;102704.83;1775072;79;20997;-75
2020/12/21 05:24:43;;;;;;;2.80;2.37;;;;;;;-1.25;67.12;102703.98;1775458;79;20965;-74
2020/12/21 05:27:17;;;;;;;3.27;2.98;;;;;;;-1.29;67.26;102701.77;1777603;79;20961;-75
2020/12/21 05:29:53;;;;;;;5.00;3.77;;;;;;;-1.32;67.30;102706.83;1778983;79;27055;-78
2020/12/21 05:32:21;;;;;;;5.00;2.65;;;;;;;-1.29;67.39;102704.73;1777721;79;21207;-75
2020/12/21 05:34:50;;;;;;;3.02;2.83;;;;;;;-1.23;67.38;102715.61;1776169;79;21032;-78
2020/12/21 05:37:20;;;;;;;3.65;2.67;;;;;;;-1.26;67.10;102708.69;1775496;79;21533;-76
2020/12/21 05:39:53;;;;;;;2.37;1.90;;;;;;;-1.31;67.41;102712.45;1775634;79;20953;-81
2020/12/21 05:42:22;;;;;;;2.17;1.95;;;;;;;-1.33;67.39;102710.67;1775540;79;21027;-77
2020/12/21 05:44:56;;;;;;;3.42;2.42;;;;;;;-1.41;67.39;102716.91;1775494;79;21027;-79
2020/12/21 05:47:25;;;;;;;2.37;2.17;;;;;;;-1.44;67.54;102714.70;1774793;79;20961;-77
2020/12/21 05:50:00;;;;;;;3.90;3.08;;;;;;;-1.50;67.71;102705.13;1775580;79;20948;-79
2020/12/21 05:52:35;;;;;;;2.72;2.50;;;;;;;-1.49;67.76;102715.86;1775239;79;20973;-77
2020/12/21 05:55:06;;;;;;;4.40;2.77;;;;;;;-1.52;67.74;102708.94;1775512;79;21487;-75
2020/12/21 05:57:34;;;;;;;2.77;2.58;;;;;;;-1.52;67.88;102713.22;1775471;79;21116;-78
2020/12/21 06:00:10;;;;;;;3.95;2.70;;;;;;;-1.46;67.41;102709.52;1775346;79;20985;-78
2020/12/21 06:02:38;;;;;;;2.77;2.53;;;;;;;-1.48;67.32;102710.75;1775853;79;20945;-78
2020/12/21 06:05:08;;;;;;;4.05;3.33;;;;;;;-1.47;67.42;102718.05;1775395;79;20974;-78
2020/12/21 06:07:37;;;;;;;5.72;3.17;;;;;;;-1.47;67.44;102722.80;1775513;79;20921;-77
2020/12/21 06:10:07;;;;;;;3.90;2.67;;;;;;;-1.49;67.74;102729.61;1775512;79;20983;-78
2020/12/21 06:12:47;;;;;;;3.83;2.62;;;;;;;-1.51;67.72;102726.13;1753999;80;20978;-78
2020/12/21 06:15:20;;;;;;;3.67;2.92;;;;;;;-1.55;67.89;102720.88;1771901;79;20957;-78
2020/12/21 06:17:47;;;;;;;6.28;3.65;;;;;;;-1.53;67.90;102728.22;1775310;79;21494;-78
2020/12/21 06:20:18;;;;;;;3.10;2.80;;;;;;;-1.53;68.16;102725.64;1774208;79;20914;-78
2020/12/21 06:22:46;;;;;;;4.00;2.70;;;;;;;-1.51;68.25;102726.13;1797833;79;22276;-78
2020/12/21 06:25:23;;;;;;;4.17;3.77;;;;;;;-1.48;68.23;102730.05;1775494;79;20973;-78
2020/12/21 06:27:51;;;;;;;4.95;4.15;;;;;;;-1.47;68.38;102726.66;1775324;79;21043;-77
2020/12/21 06:30:29;;;;;;;4.70;3.72;;;;;;;-1.42;68.46;102729.73;1724293;79;21067;-77
2020/12/21 06:33:04;;;;;;;6.08;4.78;;;;;;;-1.43;68.52;102725.02;1775723;79;21487;-78
2020/12/21 06:35:42;;;;;;;8.33;4.92;;;;;;;-1.41;68.59;102731.49;1775889;79;21282;-77
2020/12/21 06:38:10;;;;;;;8.08;5.60;;;;;;;-1.41;68.65;102731.07;1776224;79;21032;-77
2020/12/21 06:40:38;;;;;;;6.45;4.83;;;;;;;-1.36;68.74;102733.32;1776197;79;21044;-78
2020/12/21 06:43:12;;;;;;;7.08;5.35;;;;;;;-1.30;68.58;102734.77;1776587;79;20941;-79
2020/12/21 06:45:41;;;;;;;4.67;4.17;;;;;;;-1.31;68.57;102733.46;1776609;79;21001;-77
2020/12/21 06:48:09;;;;;;;6.40;5.70;;;;;;;-1.29;68.75;102731.77;1776510;79;21184;-79
2020/12/21 06:50:37;;;;;;;5.03;4.28;;;;;;;-1.19;68.54;102734.15;1775578;79;20961;-79
2020/12/21 06:53:07;;;;;;;9.55;5.35;;;;;;;-1.16;68.34;102740.64;1775718;79;20909;-79
2020/12/21 06:55:36;;;;;;;5.37;3.60;;;;;;;-1.18;68.23;102739.31;1775783;79;21374;-78
2020/12/21 06:58:04;;;;;;;7.22;4.50;;;;;;;-1.21;68.37;102735.39;1775761;79;20935;-79
2020/12/21 07:00:35;;;;;;;5.67;4.40;;;;;;;-1.25;68.48;102737.44;1773451;79;21457;-78
2020/12/21 07:03:03;;;;;;;6.50;4.87;;;;;;;-1.28;68.68;102732.23;1768679;79;21410;-78
2020/12/21 07:05:32;;;;;;;6.25;4.92;;;;;;;-1.34;68.79;102730.80;1798928;79;21001;-78
2020/12/21 07:08:00;;;;;;;5.58;4.75;;;;;;;-1.35;68.95;102736.37;1776388;79;20965;-78
2020/12/21 07:10:31;;;;;;;6.72;5.62;;;;;;;-1.35;68.99;102731.22;1776367;79;20997;-80
2020/12/21 07:12:58;;;;;;;8.00;5.60;;;;;;;-1.33;68.98;102724.41;1776379;79;21074;-80
2020/12/21 07:15:26;;;;;;;6.85;5.33;;;;;;;-1.27;68.86;102723.66;1787800;79;20996;-78
2020/12/21 07:18:00;;;;;;;6.80;5.37;;;;;;;-1.27;68.98;102728.41;1790669;79;20917;-80
2020/12/21 07:20:40;;;;;;;8.45;6.53;;;;;;;-1.22;69.04;102720.80;1848878;77;23310;-81
2020/12/21 07:23:08;;;;;;;9.30;7.58;;;;;;;-1.26;69.01;102719.84;1795082;78;21004;-77
2020/12/21 07:25:36;;;;;;;7.15;6.20;;;;;;;-1.21;69.16;102724.23;1770219;78;21198;-77
2020/12/21 07:28:04;;;;;;;9.98;5.47;;;;;;;-1.14;68.95;102717.95;1796169;78;20959;-79
2020/12/21 07:30:32;;;;;;;8.55;5.47;;;;;;;-1.14;68.96;102720.95;1795168;78;20984;-80
2020/12/21 07:33:07;;;;;;;8.20;6.28;;;;;;;-1.17;68.97;102722.19;1794770;78;21004;-80
2020/12/21 07:35:36;;;;;;;6.58;5.05;;;;;;;-1.21;69.03;102716.09;1795622;78;20889;-79
2020/12/21 07:38:12;;;;;;;7.03;5.03;;;;;;;-1.25;68.96;102713.84;1794703;78;21152;-77
2020/12/21 07:40:43;;;;;;;7.70;5.33;;;;;;;-1.27;69.09;102721.98;1794148;78;20944;-78
2020/12/21 07:43:17;;;;;;;8.50;4.83;;;;;;;-1.29;69.10;102724.04;1794194;78;21012;-77
2020/12/21 07:45:46;;;;;;;11.78;6.62;;;;;;;-1.31;69.07;102730.46;1794228;78;21027;-79
2020/12/21 07:48:14;;;;;;;8.55;5.55;;;;;;;-1.31;68.96;102727.89;1794337;78;20948;-78
2020/12/21 07:52:05;;;;;;;5.62;4.53;;;;;;;-1.31;69.00;102721.87;1777673;79;22325;-79
2020/12/21 07:54:38;;;;;;;6.30;4.33;;;;;;;-1.37;69.14;102721.73;1720539;82;20947;-80
2020/12/21 07:57:08;;;;;;;5.83;4.42;;;;;;;-1.33;69.05;102723.55;1718642;80;20997;-80
2020/12/21 07:59:44;;;;;;;5.65;4.47;;;;;;;-1.35;69.00;102729.07;1719071;82;21018;-81
2020/12/21 08:05:30;;;;;;;5.70;4.20;;;;;;;-1.41;69.43;102731.07;1656963;81;21159;-79
2020/12/21 08:08:13;;;;;;;5.80;4.50;;;;;;;-1.41;69.46;102732.36;1749105;80;21257;-79
2020/12/21 08:10:44;;;;;;;6.42;5.10;;;;;;;-1.39;69.55;102736.27;1749841;81;21363;-80
2020/12/21 08:13:20;;;;;;;5.45;4.60;;;;;;;-1.39;69.64;102729.41;1716448;82;21480;-77
2020/12/21 08:15:50;;;;;;;9.53;4.72;;;;;;;-1.39;69.77;102728.12;1720035;82;20995;-79
2020/12/21 08:18:19;;;;;;;6.72;5.55;;;;;;;-1.38;69.83;102729.88;1719953;82;21034;-80
2020/12/21 08:20:53;;;;;;;7.33;5.10;;;;;;;-1.36;69.78;102732.03;1720352;82;21644;-79
2020/12/21 08:23:30;;;;;;;6.10;4.75;;;;;;;-1.34;69.86;102729.08;1718765;82;22137;-79
2020/12/21 08:26:02;;;;;;;4.95;4.50;;;;;;;-1.31;69.77;102733.03;1749799;82;21401;-80
2020/12/21 08:28:34;;;;;;;5.08;4.30;;;;;;;-1.33;69.89;102730.84;1670053;82;21346;-79
2020/12/21 08:31:18;;;;;;;7.95;4.95;;;;;;;-1.33;69.90;102720.97;1718182;82;20987;-78
2020/12/21 08:34:06;;;;;;;5.47;4.80;;;;;;;-1.38;70.09;102726.41;1719595;82;21026;-79
2020/12/21 08:36:39;;;;;;;6.35;5.53;;;;;;;-1.42;70.25;102717.77;1719742;82;22472;-77
2020/12/21 08:39:16;;;;;;;;;;;;;;;-1.40;70.47;102717.39;1723027;82;21025;-76
2020/12/21 08:41:53;;;;;;;8.53;5.30;;;;;;;-1.34;70.51;102727.80;1720220;82;20197;-76
2020/12/21 08:44:29;;;;;;;6.78;5.28;;;;;;;-1.37;70.43;102717.44;1718634;82;20967;-78
2020/12/21 08:47:00;;;;;;;5.15;4.45;;;;;;;-1.39;70.55;102719.11;1720520;82;20971;-77
2020/12/21 08:49:46;;;;;;;;;;;;;;;;;;;;;
2020/12/21 08:52:26;;;;;;;5.75;5.15;;;;;;;-1.38;70.65;102720.86;1702941;82;21010;-77
2020/12/21 08:54:55;;;;;;;7.85;6.00;;;;;;;-1.41;70.83;102718.20;1723536;80;21034;-78
2020/12/21 08:57:27;;;;;;;8.40;5.95;;;;;;;-1.41;70.89;102718.63;1723845;82;21070;-80
2020/12/21 08:59:55;;;;;;;8.83;6.20;;;;;;;-1.42;71.08;102711.33;1723646;82;21073;-78
2020/12/21 09:02:23;;;;;;;7.40;6.65;;;;;;;-1.41;71.11;102714.34;1723488;82;21499;-79
2020/12/21 09:04:50;;;;;;;7.08;5.78;;;;;;;-1.38;71.17;102709.28;1723651;82;20963;-78
2020/12/21 09:07:20;;;;;;;7.92;6.47;;;;;;;-1.34;70.86;102708.92;1720787;80;21023;-77
2020/12/21 09:09:49;;;;;;;7.53;6.67;;;;;;;-1.39;70.77;102711.81;1722955;81;20943;-79
2020/12/21 09:12:17;;;;;;;7.37;6.35;;;;;;;-1.43;70.82;102702.28;1722172;82;21394;-76
2020/12/21 09:14:45;;;;;;;7.50;6.42;;;;;;;-1.49;71.00;102698.73;1720227;82;21161;-80
2020/12/21 09:17:13;;;;;;;8.65;6.92;;;;;;;-1.48;70.90;102695.74;1720126;82;21516;-76
2020/12/21 09:19:40;;;;;;;10.70;6.70;;;;;;;-1.52;71.12;102698.65;1750881;80;20899;-77
2020/12/21 09:22:08;;;;;;;8.30;6.75;;;;;;;-1.52;71.18;102696.08;1720073;82;21014;-79
2020/12/21 09:24:36;;;;;;;6.78;5.95;;;;;;;-1.51;71.37;102689.25;1719632;82;21034;-77
2020/12/21 09:27:04;;;;;;;8.65;7.00;;;;;;;-1.50;71.35;102681.97;1719970;82;21101;-77
2020/12/21 09:29:32;;;;;;;9.78;6.85;;;;;;;-1.48;71.50;102682.45;1720259;82;21366;-78
2020/12/21 09:32:00;;;;;;;10.45;7.22;;;;;;;-1.44;71.29;102682.55;1718643;82;20955;-78
2020/12/21 09:34:28;;;;;;;7.40;6.53;;;;;;;-1.39;71.11;102680.94;1719799;82;21011;-77
2020/12/21 09:36:56;;;;;;;8.65;6.97;;;;;;;-1.36;70.71;102675.84;1718398;82;20982;-81
2020/12/21 09:39:24;;;;;;;9.63;8.13;;;;;;;-1.36;70.47;102683.14;1719767;82;20995;-81
2020/12/21 09:41:55;;;;;;;9.83;8.18;;;;;;;-1.37;70.78;102677.98;1719976;82;21058;-81
2020/12/21 09:44:22;;;;;;;13.00;8.70;;;;;;;-1.36;70.68;102684.42;1718780;82;21468;-80
2020/12/21 09:46:51;;;;;;;12.00;8.08;;;;;;;-1.32;70.57;102680.23;1718224;82;20990;-82
2020/12/21 09:49:19;;;;;;;13.88;8.35;;;;;;;-1.34;70.38;102681.47;1719862;81;21380;-78
2020/12/21 09:51:53;;;;;;;17.32;9.98;;;;;;;-1.40;70.48;102682.65;1693848;82;20981;-76
2020/12/21 09:54:21;;;;;;;17.48;11.45;;;;;;;-1.47;70.46;102682.92;1716844;82;20956;-76
2020/12/21 09:56:51;;;;;;;16.35;11.45;;;;;;;-1.50;70.71;102690.55;1716752;82;20972;-78
2020/12/21 09:59:20;;;;;;;12.55;8.78;;;;;;;-1.48;70.29;102687.59;1716751;82;20963;-81
2020/12/21 10:01:48;;;;;;;12.80;9.65;;;;;;;-1.47;70.07;102688.46;1716953;82;21023;-78
2020/12/21 10:04:16;;;;;;;14.40;10.93;;;;;;;-1.48;69.91;102688.02;1716940;82;21749;-76
2020/12/21 10:06:49;;;;;;;12.68;9.00;;;;;;;-1.47;69.89;102673.02;1716877;82;21292;-76
2020/12/21 10:09:19;;;;;;;15.48;10.68;;;;;;;-1.38;69.99;102680.98;1715174;82;20923;-75
2020/12/21 10:11:52;;;;;;;16.65;10.35;;;;;;;-1.31;69.41;102683.27;1716703;82;20995;-74
2020/12/21 10:14:20;;;;;;;11.50;8.85;;;;;;;-1.22;68.99;102683.86;1716823;82;20935;-74
2020/12/21 10:16:53;;;;;;;15.50;10.58;;;;;;;-1.22;68.19;102683.86;1716539;82;21184;-75
2020/12/21 10:19:23;;;;;;;13.68;9.73;;;;;;;-1.32;68.08;102675.08;1716618;82;20955;-74
2020/12/21 10:21:53;;;;;;;12.37;8.48;;;;;;;-1.39;68.16;102678.36;1716507;82;20955;-73
2020/12/21 10:24:21;;;;;;;13.15;9.58;;;;;;;-1.41;67.85;102679.60;1716593;82;20957;-73
2020/12/21 10:26:49;;;;;;;14.78;9.48;;;;;;;-1.44;67.96;102679.55;1716661;82;20964;-74
2020/12/21 10:29:17;;;;;;;16.52;10.25;;;;;;;-1.44;67.78;102679.55;1716590;82;21011;-74
2020/12/21 10:31:45;;;;;;;16.48;10.40;;;;;;;-1.48;67.79;102674.73;1716546;82;21046;-73
2020/12/21 10:34:17;;;;;;;14.55;9.60;;;;;;;-1.44;67.82;102677.40;1716735;82;20999;-74
2020/12/21 10:36:50;;;;;;;17.42;13.00;;;;;;;-1.48;67.61;102682.45;1716487;82;21030;-73
2020/12/21 10:39:18;;;;;;;19.40;12.85;;;;;;;-1.55;67.81;102686.15;1716389;82;21571;-74
2020/12/21 10:41:46;;;;;;;21.15;13.28;;;;;;;-1.59;68.10;102686.48;1716898;80;21195;-74
2020/12/21 10:44:14;;;;;;;19.57;11.97;;;;;;;-1.57;68.11;102683.95;1716499;82;20954;-74
2020/12/21 10:46:43;;;;;;;23.20;14.73;;;;;;;-1.59;68.20;102683.05;1716677;82;20959;-74
2020/12/21 10:49:33;;;;;;;20.92;11.95;;;;;;;-1.58;68.32;102687.34;1716756;82;20951;-78
2020/12/21 10:52:26;;;;;;;18.10;11.95;;;;;;;-1.55;68.13;102687.44;1714686;82;20962;-74
2020/12/21 10:55:31;;;;;;;21.57;11.83;;;;;;;-1.58;67.90;102679.23;1572950;91;21173;-75
2020/12/21 11:09:02;;;;;;;18.98;10.38;;;;;;;-1.61;67.70;102670.56;1819571;78;26309;-75
2020/12/21 11:23:13;;;;;;;15.53;8.85;;;;;;;-1.56;67.28;102670.24;1793142;78;28647;-74
2020/12/21 11:26:25;;;;;;;;;;;;;;;;;;;;;
2020/12/21 11:29:20;;;;;;;;;;;;;;;-1.53;66.98;102684.48;1885117;75;21585;-76
2020/12/21 11:36:42;;;;;;;16.55;9.85;;;;;;;-1.51;66.51;102687.97;1769389;80;28075;-74
2020/12/21 11:39:31;;;;;;;13.70;8.65;;;;;;;-1.51;66.39;102687.54;1706849;82;20958;-75
2020/12/21 11:42:10;;;;;;;15.53;9.68;;;;;;;-1.47;66.16;102680.34;1714198;82;21186;-74
2020/12/21 11:44:53;;;;;;;17.82;10.05;;;;;;;-1.51;66.07;102683.68;1735007;82;20989;-75
2020/12/21 11:51:25;;;;;;;16.12;8.45;;;;;;;-1.46;66.30;102679.50;1683202;84;21049;-75
2020/12/21 12:10:32;;;;;;;11.75;7.95;;;;;;;-1.39;65.53;102679.65;1775154;79;22285;-76
2020/12/21 12:13:14;;;;;;;13.53;9.20;;;;;;;-1.44;65.66;102686.41;1716091;82;21452;-76
2020/12/21 12:30:06;;;;;;;17.57;9.68;;;;;;;-1.12;64.90;102681.53;1785783;79;24045;-77
2020/12/21 12:36:27;;;;;;;14.18;10.08;;;;;;;-1.09;64.96;102693.59;1790421;80;28017;-76
2020/12/21 12:39:40;;;;;;;17.27;10.93;;;;;;;-1.16;65.09;102695.59;1768355;81;20906;-77
2020/12/21 12:42:32;;;;;;;18.17;10.93;;;;;;;-1.19;64.99;102700.69;1710770;82;20961;-76
2020/12/21 12:45:10;;;;;;;15.98;9.35;;;;;;;-1.34;65.14;102700.77;1696980;83;20946;-75
2020/12/21 12:47:39;;;;;;;14.50;9.18;;;;;;;-1.43;65.20;102703.14;1696917;83;20958;-77
2020/12/21 12:50:07;;;;;;;14.13;10.38;;;;;;;-1.47;65.21;102703.90;1665482;85;21074;-77
2020/12/21 12:52:38;;;;;;;13.40;9.38;;;;;;;-1.49;65.00;102703.88;1637322;86;21070;-77